Hauptseite
METAR-TAF:

METAR-TAF

Flughäfen :

Flughafen Turaif

Turaif, Saudi-Arabien

Breite: 31-41N, Länge: 038-44E, Höhe: 813 m

Beobachtung

Neuester Wetterbericht von vor 58 Minuten, um 00:00 UTC
Wind 4 kt aus West
Temperatur 3°C
Luftfeuchtigkeit 93%
Luftdruck 1028 hPa
Sichtweite 10 km oder mehr
keine Wolken unter 1500 m und keine Kumulonimbus oder Gewitterwolken

METAR: OETR 260000Z 27004KT CAVOK 03/02 Q1028

Zeit: 03:58 (00:58 UTC)

Prognose

Neuester Wetterbericht von vor 1 Stunde und 58 Minuten, um 23:00 UTC
Gültige Prognose vom 26 um 00 UTC bis 27 um 06 UTC
Wind 6 kt aus Nord/Nordost
Sichtweite: 7000 m
Aufgelockert bewölkt in der Höhe von 3000 ft
Zeitweise
vom 26 um 00 UTC bis 26 um 06 UTC
Sichtweite: 3500 m
feuchter Dunst
Übergehend zu
vom 26 um 06 UTC bis 26 um 08 UTC
Wind 14 kt aus West

TAF: OETR 252300Z 2600/2706 03006KT 7000 SCT030 TEMPO 2600/2606 3500 BR BECMG 2606/2608 28014KT

Wetterbeobachtungen und Prognosen von mehr als 4000 Flughäfen (METAR und TAF Bericht).

Die verfügbaren Stationen werden durch gelbe und rote Markierungen auf der Karte dargestellt.

Führen Sie die Maus auf sie, um den Namen der Station zu sehen.

Darauf klicken, um die Beobachtung von Wetterbeobachtungen und Prognosen zu sehen.

Um die Karte zu ändern : klicken Sie auf den grünen Tasten mit einem schwarzen Kreuz Zum Vergrößern, auf den grünen Button mit einem Gedankenstrich zu verkleinern, oder auf die grünen Pfeile für benachbarte Karten.


METAR-TAF: